sensor_id;sensor_type;location;lat;lon;timestamp;temperature;humidity
51811;DHT22;52468;40.116;18.296;2023-03-18T00:01:10;6.80;67.80
51811;DHT22;52468;40.116;18.296;2023-03-18T00:03:38;6.80;67.90
51811;DHT22;52468;40.116;18.296;2023-03-18T00:06:12;6.60;68.10
51811;DHT22;52468;40.116;18.296;2023-03-18T00:08:40;6.60;68.30
51811;DHT22;52468;40.116;18.296;2023-03-18T00:11:09;6.70;68.20
51811;DHT22;52468;40.116;18.296;2023-03-18T00:13:38;6.60;68.20
51811;DHT22;52468;40.116;18.296;2023-03-18T00:16:10;6.60;68.40
51811;DHT22;52468;40.116;18.296;2023-03-18T00:18:38;6.60;68.50
51811;DHT22;52468;40.116;18.296;2023-03-18T00:21:07;6.60;68.80
51811;DHT22;52468;40.116;18.296;2023-03-18T00:23:36;6.60;68.80
51811;DHT22;52468;40.116;18.296;2023-03-18T00:26:05;6.60;68.80
51811;DHT22;52468;40.116;18.296;2023-03-18T00:28:37;6.60;68.90
51811;DHT22;52468;40.116;18.296;2023-03-18T00:31:08;6.60;68.90
51811;DHT22;52468;40.116;18.296;2023-03-18T00:33:37;6.70;68.80
51811;DHT22;52468;40.116;18.296;2023-03-18T00:36:07;6.70;68.80
51811;DHT22;52468;40.116;18.296;2023-03-18T00:38:36;6.70;68.70
51811;DHT22;52468;40.116;18.296;2023-03-18T00:41:04;6.70;68.70
51811;DHT22;52468;40.116;18.296;2023-03-18T00:43:41;6.80;68.70
51811;DHT22;52468;40.116;18.296;2023-03-18T00:46:24;6.80;68.90
51811;DHT22;52468;40.116;18.296;2023-03-18T00:48:55;6.70;68.90
51811;DHT22;52468;40.116;18.296;2023-03-18T00:51:24;6.60;69.20
51811;DHT22;52468;40.116;18.296;2023-03-18T00:53:55;6.50;69.30
51811;DHT22;52468;40.116;18.296;2023-03-18T00:56:26;6.50;69.40
51811;DHT22;52468;40.116;18.296;2023-03-18T00:58:55;6.40;69.70
51811;DHT22;52468;40.116;18.296;2023-03-18T01:01:24;6.40;69.60
51811;DHT22;52468;40.116;18.296;2023-03-18T01:03:53;6.30;69.70
51811;DHT22;52468;40.116;18.296;2023-03-18T01:06:27;6.30;69.80
51811;DHT22;52468;40.116;18.296;2023-03-18T01:08:56;6.20;69.80
51811;DHT22;52468;40.116;18.296;2023-03-18T01:11:25;6.20;69.90
51811;DHT22;52468;40.116;18.296;2023-03-18T01:13:54;6.10;70.00
51811;DHT22;52468;40.116;18.296;2023-03-18T01:16:22;6.10;70.10
51811;DHT22;52468;40.116;18.296;2023-03-18T01:18:51;6.00;70.30
51811;DHT22;52468;40.116;18.296;2023-03-18T01:21:19;6.00;70.60
51811;DHT22;52468;40.116;18.296;2023-03-18T01:23:52;6.00;70.90
51811;DHT22;52468;40.116;18.296;2023-03-18T01:26:20;6.00;71.20
51811;DHT22;52468;40.116;18.296;2023-03-18T01:28:49;6.00;71.40
51811;DHT22;52468;40.116;18.296;2023-03-18T01:31:18;6.10;71.30
51811;DHT22;52468;40.116;18.296;2023-03-18T01:33:47;6.10;71.30
51811;DHT22;52468;40.116;18.296;2023-03-18T01:36:15;6.10;71.20
51811;DHT22;52468;40.116;18.296;2023-03-18T01:38:59;6.20;71.10
51811;DHT22;52468;40.116;18.296;2023-03-18T01:41:27;6.20;71.10
51811;DHT22;52468;40.116;18.296;2023-03-18T01:43:55;6.20;71.20
51811;DHT22;52468;40.116;18.296;2023-03-18T01:46:39;6.30;71.20
51811;DHT22;52468;40.116;18.296;2023-03-18T01:49:12;6.30;71.20
51811;DHT22;52468;40.116;18.296;2023-03-18T01:51:48;6.30;71.00
51811;DHT22;52468;40.116;18.296;2023-03-18T01:54:18;6.20;71.20
51811;DHT22;52468;40.116;18.296;2023-03-18T01:56:47;6.20;71.20
51811;DHT22;52468;40.116;18.296;2023-03-18T01:59:19;6.20;71.30
51811;DHT22;52468;40.116;18.296;2023-03-18T02:02:06;6.20;71.40
51811;DHT22;52468;40.116;18.296;2023-03-18T02:04:47;6.20;71.60
51811;DHT22;52468;40.116;18.296;2023-03-18T02:07:23;6.10;71.60
51811;DHT22;52468;40.116;18.296;2023-03-18T02:09:52;6.20;71.60
51811;DHT22;52468;40.116;18.296;2023-03-18T02:12:30;6.20;72.00
51811;DHT22;52468;40.116;18.296;2023-03-18T02:15:06;6.20;72.10
51811;DHT22;52468;40.116;18.296;2023-03-18T02:17:40;6.30;72.20
51811;DHT22;52468;40.116;18.296;2023-03-18T02:26:02;6.20;72.30
51811;DHT22;52468;40.116;18.296;2023-03-18T02:28:34;6.30;72.30
51811;DHT22;52468;40.116;18.296;2023-03-18T02:31:09;6.30;72.50
51811;DHT22;52468;40.116;18.296;2023-03-18T02:33:41;6.30;72.30
51811;DHT22;52468;40.116;18.296;2023-03-18T02:36:19;6.30;72.30
51811;DHT22;52468;40.116;18.296;2023-03-18T02:38:49;6.30;72.20
51811;DHT22;52468;40.116;18.296;2023-03-18T02:41:23;6.30;72.30
51811;DHT22;52468;40.116;18.296;2023-03-18T02:43:52;6.30;72.20
51811;DHT22;52468;40.116;18.296;2023-03-18T02:49:06;6.20;72.20
51811;DHT22;52468;40.116;18.296;2023-03-18T02:51:36;6.10;71.90
51811;DHT22;52468;40.116;18.296;2023-03-18T02:54:18;6.10;71.90
51811;DHT22;52468;40.116;18.296;2023-03-18T02:56:46;6.10;71.90
51811;DHT22;52468;40.116;18.296;2023-03-18T02:59:15;6.00;71.80
51811;DHT22;52468;40.116;18.296;2023-03-18T03:01:44;6.00;72.10
51811;DHT22;52468;40.116;18.296;2023-03-18T03:04:14;5.90;72.30
51811;DHT22;52468;40.116;18.296;2023-03-18T03:06:42;5.90;72.40
51811;DHT22;52468;40.116;18.296;2023-03-18T03:09:14;5.90;72.50
51811;DHT22;52468;40.116;18.296;2023-03-18T03:11:45;5.90;72.60
51811;DHT22;52468;40.116;18.296;2023-03-18T03:14:19;5.80;72.70
51811;DHT22;52468;40.116;18.296;2023-03-18T03:16:51;5.90;72.60
51811;DHT22;52468;40.116;18.296;2023-03-18T03:19:19;5.90;72.50
51811;DHT22;52468;40.116;18.296;2023-03-18T03:21:47;5.90;72.50
51811;DHT22;52468;40.116;18.296;2023-03-18T03:24:16;5.90;72.20
51811;DHT22;52468;40.116;18.296;2023-03-18T03:26:44;5.90;72.40
51811;DHT22;52468;40.116;18.296;2023-03-18T03:29:12;5.90;72.40
51811;DHT22;52468;40.116;18.296;2023-03-18T03:31:41;5.80;72.60
51811;DHT22;52468;40.116;18.296;2023-03-18T03:34:08;5.80;72.80
51811;DHT22;52468;40.116;18.296;2023-03-18T03:36:37;5.80;72.80
51811;DHT22;52468;40.116;18.296;2023-03-18T03:39:05;5.70;73.00
51811;DHT22;52468;40.116;18.296;2023-03-18T03:41:34;5.70;73.30
51811;DHT22;52468;40.116;18.296;2023-03-18T03:44:02;5.70;73.20
51811;DHT22;52468;40.116;18.296;2023-03-18T03:46:30;5.60;73.30
51811;DHT22;52468;40.116;18.296;2023-03-18T03:48:59;5.70;73.30
51811;DHT22;52468;40.116;18.296;2023-03-18T03:51:27;5.70;73.00
51811;DHT22;52468;40.116;18.296;2023-03-18T03:53:55;5.80;72.80
51811;DHT22;52468;40.116;18.296;2023-03-18T03:56:24;5.70;72.80
51811;DHT22;52468;40.116;18.296;2023-03-18T03:58:54;5.70;73.00
51811;DHT22;52468;40.116;18.296;2023-03-18T04:01:26;5.60;73.10
51811;DHT22;52468;40.116;18.296;2023-03-18T04:03:56;5.70;73.10
51811;DHT22;52468;40.116;18.296;2023-03-18T04:06:24;5.60;73.20
51811;DHT22;52468;40.116;18.296;2023-03-18T04:08:59;5.70;73.20
51811;DHT22;52468;40.116;18.296;2023-03-18T04:11:27;5.70;73.20
51811;DHT22;52468;40.116;18.296;2023-03-18T04:13:55;5.60;73.30
51811;DHT22;52468;40.116;18.296;2023-03-18T04:16:23;5.70;73.10
51811;DHT22;52468;40.116;18.296;2023-03-18T04:18:51;5.70;73.00
51811;DHT22;52468;40.116;18.296;2023-03-18T04:21:22;5.70;72.90
51811;DHT22;52468;40.116;18.296;2023-03-18T04:23:53;5.60;73.00
51811;DHT22;52468;40.116;18.296;2023-03-18T04:26:21;5.60;73.10
51811;DHT22;52468;40.116;18.296;2023-03-18T04:28:49;5.60;73.30
51811;DHT22;52468;40.116;18.296;2023-03-18T04:31:18;5.60;73.30
51811;DHT22;52468;40.116;18.296;2023-03-18T04:33:46;5.60;73.20
51811;DHT22;52468;40.116;18.296;2023-03-18T04:36:15;5.60;73.40
51811;DHT22;52468;40.116;18.296;2023-03-18T04:38:43;5.60;73.40
51811;DHT22;52468;40.116;18.296;2023-03-18T04:41:11;5.60;73.30
51811;DHT22;52468;40.116;18.296;2023-03-18T04:43:39;5.60;73.50
51811;DHT22;52468;40.116;18.296;2023-03-18T04:46:07;5.60;73.50
51811;DHT22;52468;40.116;18.296;2023-03-18T04:48:38;5.60;73.50
51811;DHT22;52468;40.116;18.296;2023-03-18T04:51:08;5.70;73.40
51811;DHT22;52468;40.116;18.296;2023-03-18T04:53:38;5.70;73.10
51811;DHT22;52468;40.116;18.296;2023-03-18T04:56:08;5.70;73.00
51811;DHT22;52468;40.116;18.296;2023-03-18T04:58:47;5.80;72.90
51811;DHT22;52468;40.116;18.296;2023-03-18T05:01:20;5.80;72.90
51811;DHT22;52468;40.116;18.296;2023-03-18T05:03:48;5.80;73.00
51811;DHT22;52468;40.116;18.296;2023-03-18T05:06:22;5.80;73.20
51811;DHT22;52468;40.116;18.296;2023-03-18T05:09:11;5.70;73.30
51811;DHT22;52468;40.116;18.296;2023-03-18T05:11:41;5.80;73.50
51811;DHT22;52468;40.116;18.296;2023-03-18T05:14:18;5.90;73.70
51811;DHT22;52468;40.116;18.296;2023-03-18T05:16:48;6.00;73.80
51811;DHT22;52468;40.116;18.296;2023-03-18T05:19:16;6.00;73.80
51811;DHT22;52468;40.116;18.296;2023-03-18T05:21:52;6.30;73.60
51811;DHT22;52468;40.116;18.296;2023-03-18T05:24:20;6.50;73.00
51811;DHT22;52468;40.116;18.296;2023-03-18T05:26:50;6.60;72.80
51811;DHT22;52468;40.116;18.296;2023-03-18T05:29:21;6.80;72.20
51811;DHT22;52468;40.116;18.296;2023-03-18T05:32:16;7.00;72.10
51811;DHT22;52468;40.116;18.296;2023-03-18T05:34:48;7.10;71.20
51811;DHT22;52468;40.116;18.296;2023-03-18T05:37:16;7.30;71.00
51811;DHT22;52468;40.116;18.296;2023-03-18T05:39:54;7.50;70.10
51811;DHT22;52468;40.116;18.296;2023-03-18T05:42:23;7.60;69.60
51811;DHT22;52468;40.116;18.296;2023-03-18T05:44:51;7.70;69.20
51811;DHT22;52468;40.116;18.296;2023-03-18T05:47:22;7.90;68.60
51811;DHT22;52468;40.116;18.296;2023-03-18T05:50:03;8.00;67.80
51811;DHT22;52468;40.116;18.296;2023-03-18T05:52:33;8.10;67.40
51811;DHT22;52468;40.116;18.296;2023-03-18T05:55:05;8.30;66.50
51811;DHT22;52468;40.116;18.296;2023-03-18T05:57:37;8.40;66.30
51811;DHT22;52468;40.116;18.296;2023-03-18T06:00:08;8.50;65.90
51811;DHT22;52468;40.116;18.296;2023-03-18T06:02:43;8.80;65.40
51811;DHT22;52468;40.116;18.296;2023-03-18T06:05:13;9.00;64.80
51811;DHT22;52468;40.116;18.296;2023-03-18T06:07:41;9.20;63.90
51811;DHT22;52468;40.116;18.296;2023-03-18T06:10:10;9.30;63.70
51811;DHT22;52468;40.116;18.296;2023-03-18T06:12:40;9.50;62.80
51811;DHT22;52468;40.116;18.296;2023-03-18T06:15:11;9.60;62.60
51811;DHT22;52468;40.116;18.296;2023-03-18T06:17:40;9.80;61.60
51811;DHT22;52468;40.116;18.296;2023-03-18T06:20:10;10.00;61.20
51811;DHT22;52468;40.116;18.296;2023-03-18T06:22:38;10.00;60.40
51811;DHT22;52468;40.116;18.296;2023-03-18T06:25:06;10.10;60.60
51811;DHT22;52468;40.116;18.296;2023-03-18T06:27:37;10.20;60.10
51811;DHT22;52468;40.116;18.296;2023-03-18T06:30:06;10.30;59.90
51811;DHT22;52468;40.116;18.296;2023-03-18T06:32:36;10.50;59.40
51811;DHT22;52468;40.116;18.296;2023-03-18T06:35:05;10.60;58.90
51811;DHT22;52468;40.116;18.296;2023-03-18T06:37:33;10.80;58.90
51811;DHT22;52468;40.116;18.296;2023-03-18T06:40:05;10.80;58.70
51811;DHT22;52468;40.116;18.296;2023-03-18T06:42:34;11.00;58.60
51811;DHT22;52468;40.116;18.296;2023-03-18T06:45:08;11.00;58.50
51811;DHT22;52468;40.116;18.296;2023-03-18T06:47:59;11.30;58.60
51811;DHT22;52468;40.116;18.296;2023-03-18T06:50:31;11.50;58.20
51811;DHT22;52468;40.116;18.296;2023-03-18T06:53:00;11.60;57.90
51811;DHT22;52468;40.116;18.296;2023-03-18T06:55:30;11.70;57.90
51811;DHT22;52468;40.116;18.296;2023-03-18T06:57:58;11.90;58.10
51811;DHT22;52468;40.116;18.296;2023-03-18T07:00:35;12.00;58.20
51811;DHT22;52468;40.116;18.296;2023-03-18T07:03:05;12.20;57.90
51811;DHT22;52468;40.116;18.296;2023-03-18T07:05:33;12.30;57.90
51811;DHT22;52468;40.116;18.296;2023-03-18T07:08:01;12.40;58.00
51811;DHT22;52468;40.116;18.296;2023-03-18T07:10:30;12.50;57.90
51811;DHT22;52468;40.116;18.296;2023-03-18T07:13:06;12.70;57.30
51811;DHT22;52468;40.116;18.296;2023-03-18T07:15:35;12.80;57.30
51811;DHT22;52468;40.116;18.296;2023-03-18T07:18:03;13.00;57.60
51811;DHT22;52468;40.116;18.296;2023-03-18T07:20:32;13.20;57.30
51811;DHT22;52468;40.116;18.296;2023-03-18T07:23:01;13.30;57.20
51811;DHT22;52468;40.116;18.296;2023-03-18T07:25:29;13.50;56.60
51811;DHT22;52468;40.116;18.296;2023-03-18T07:27:59;13.50;56.30
51811;DHT22;52468;40.116;18.296;2023-03-18T07:30:27;13.60;56.60
51811;DHT22;52468;40.116;18.296;2023-03-18T07:32:55;13.80;56.10
51811;DHT22;52468;40.116;18.296;2023-03-18T07:35:23;13.80;55.80
51811;DHT22;52468;40.116;18.296;2023-03-18T07:37:51;14.00;55.20
51811;DHT22;52468;40.116;18.296;2023-03-18T07:40:19;14.10;55.40
51811;DHT22;52468;40.116;18.296;2023-03-18T07:42:47;14.20;55.10
51811;DHT22;52468;40.116;18.296;2023-03-18T07:45:18;14.30;54.80
51811;DHT22;52468;40.116;18.296;2023-03-18T07:47:46;14.40;54.50
51811;DHT22;52468;40.116;18.296;2023-03-18T07:50:14;14.60;54.30
51811;DHT22;52468;40.116;18.296;2023-03-18T07:52:42;14.80;54.00
51811;DHT22;52468;40.116;18.296;2023-03-18T07:55:10;14.90;53.40
51811;DHT22;52468;40.116;18.296;2023-03-18T07:57:38;14.80;53.40
51811;DHT22;52468;40.116;18.296;2023-03-18T08:00:08;14.90;53.30
51811;DHT22;52468;40.116;18.296;2023-03-18T08:02:40;15.10;52.90
51811;DHT22;52468;40.116;18.296;2023-03-18T08:05:09;15.30;52.90
51811;DHT22;52468;40.116;18.296;2023-03-18T08:07:38;15.40;52.20
51811;DHT22;52468;40.116;18.296;2023-03-18T08:10:06;15.50;52.20
51811;DHT22;52468;40.116;18.296;2023-03-18T08:12:35;15.70;52.00
51811;DHT22;52468;40.116;18.296;2023-03-18T08:15:18;15.60;51.60
51811;DHT22;52468;40.116;18.296;2023-03-18T08:17:46;15.70;51.80
51811;DHT22;52468;40.116;18.296;2023-03-18T08:20:13;15.80;51.70
51811;DHT22;52468;40.116;18.296;2023-03-18T08:22:42;15.90;51.00
51811;DHT22;52468;40.116;18.296;2023-03-18T08:25:10;15.80;50.90
51811;DHT22;52468;40.116;18.296;2023-03-18T08:27:38;16.00;50.20
51811;DHT22;52468;40.116;18.296;2023-03-18T08:30:06;15.90;49.60
51811;DHT22;52468;40.116;18.296;2023-03-18T08:32:34;16.00;49.60
51811;DHT22;52468;40.116;18.296;2023-03-18T08:35:02;16.00;48.90
51811;DHT22;52468;40.116;18.296;2023-03-18T08:37:31;16.10;48.30
51811;DHT22;52468;40.116;18.296;2023-03-18T08:40:00;16.20;47.70
51811;DHT22;52468;40.116;18.296;2023-03-18T08:42:28;16.10;45.30
51811;DHT22;52468;40.116;18.296;2023-03-18T08:44:57;16.10;45.60
51811;DHT22;52468;40.116;18.296;2023-03-18T08:47:25;16.30;45.40
51811;DHT22;52468;40.116;18.296;2023-03-18T08:49:53;16.50;45.50
51811;DHT22;52468;40.116;18.296;2023-03-18T08:52:21;16.50;45.80
51811;DHT22;52468;40.116;18.296;2023-03-18T08:54:50;16.60;45.60
51811;DHT22;52468;40.116;18.296;2023-03-18T08:57:18;16.50;45.80
51811;DHT22;52468;40.116;18.296;2023-03-18T08:59:45;16.60;46.10
51811;DHT22;52468;40.116;18.296;2023-03-18T09:02:14;16.50;45.70
51811;DHT22;52468;40.116;18.296;2023-03-18T09:04:45;16.60;46.00
51811;DHT22;52468;40.116;18.296;2023-03-18T09:07:14;16.80;45.10
51811;DHT22;52468;40.116;18.296;2023-03-18T09:09:45;16.80;44.60
51811;DHT22;52468;40.116;18.296;2023-03-18T09:12:13;17.00;44.60
51811;DHT22;52468;40.116;18.296;2023-03-18T09:14:41;17.10;44.30
51811;DHT22;52468;40.116;18.296;2023-03-18T09:17:10;17.30;43.30
51811;DHT22;52468;40.116;18.296;2023-03-18T09:19:38;17.30;42.50
51811;DHT22;52468;40.116;18.296;2023-03-18T09:22:06;17.20;42.50
51811;DHT22;52468;40.116;18.296;2023-03-18T09:24:36;17.10;42.70
51811;DHT22;52468;40.116;18.296;2023-03-18T09:27:03;17.30;43.00
51811;DHT22;52468;40.116;18.296;2023-03-18T09:29:31;17.30;42.50
51811;DHT22;52468;40.116;18.296;2023-03-18T09:31:59;17.40;42.40
51811;DHT22;52468;40.116;18.296;2023-03-18T09:34:27;17.60;41.10
51811;DHT22;52468;40.116;18.296;2023-03-18T09:36:55;17.40;40.70
51811;DHT22;52468;40.116;18.296;2023-03-18T09:39:24;17.50;41.00
51811;DHT22;52468;40.116;18.296;2023-03-18T09:44:42;17.90;40.30
51811;DHT22;52468;40.116;18.296;2023-03-18T09:47:34;18.00;39.80
51811;DHT22;52468;40.116;18.296;2023-03-18T09:53:41;18.00;39.70
51811;DHT22;52468;40.116;18.296;2023-03-18T09:56:22;17.90;40.10
51811;DHT22;52468;40.116;18.296;2023-03-18T09:59:00;18.00;39.80
51811;DHT22;52468;40.116;18.296;2023-03-18T10:01:34;18.30;39.60
51811;DHT22;52468;40.116;18.296;2023-03-18T10:04:20;18.30;39.10
51811;DHT22;52468;40.116;18.296;2023-03-18T10:06:56;18.30;39.50
51811;DHT22;52468;40.116;18.296;2023-03-18T10:09:40;18.30;39.30
51811;DHT22;52468;40.116;18.296;2023-03-18T10:12:31;18.50;39.10
51811;DHT22;52468;40.116;18.296;2023-03-18T10:15:30;18.60;39.10
51811;DHT22;52468;40.116;18.296;2023-03-18T10:18:10;18.70;39.30
51811;DHT22;52468;40.116;18.296;2023-03-18T10:33:16;19.10;39.50
51811;DHT22;52468;40.116;18.296;2023-03-18T10:38:33;19.30;38.80
51811;DHT22;52468;40.116;18.296;2023-03-18T10:41:17;19.30;38.00
51811;DHT22;52468;40.116;18.296;2023-03-18T10:43:49;19.00;38.30
51811;DHT22;52468;40.116;18.296;2023-03-18T10:46:20;19.00;38.60
51811;DHT22;52468;40.116;18.296;2023-03-18T10:49:14;19.20;38.10
51811;DHT22;52468;40.116;18.296;2023-03-18T10:57:01;19.60;37.10
51811;DHT22;52468;40.116;18.296;2023-03-18T10:59:29;19.60;37.20
51811;DHT22;52468;40.116;18.296;2023-03-18T11:02:04;19.70;36.80
51811;DHT22;52468;40.116;18.296;2023-03-18T11:04:40;19.70;36.70
51811;DHT22;52468;40.116;18.296;2023-03-18T11:07:17;19.90;36.30
51811;DHT22;52468;40.116;18.296;2023-03-18T11:09:46;20.10;35.60
51811;DHT22;52468;40.116;18.296;2023-03-18T11:12:17;20.00;35.60
51811;DHT22;52468;40.116;18.296;2023-03-18T11:14:47;19.80;35.70
51811;DHT22;52468;40.116;18.296;2023-03-18T11:22:27;20.30;35.70
51811;DHT22;52468;40.116;18.296;2023-03-18T11:25:16;20.30;35.60
51811;DHT22;52468;40.116;18.296;2023-03-18T11:30:18;20.20;34.70
51811;DHT22;52468;40.116;18.296;2023-03-18T11:33:05;20.30;34.90
51811;DHT22;52468;40.116;18.296;2023-03-18T11:35:49;20.40;35.10
51811;DHT22;52468;40.116;18.296;2023-03-18T11:38:24;20.50;35.10
51811;DHT22;52468;40.116;18.296;2023-03-18T11:41:22;20.20;35.30
51811;DHT22;52468;40.116;18.296;2023-03-18T11:43:58;19.90;36.50
51811;DHT22;52468;40.116;18.296;2023-03-18T11:46:39;20.10;36.80
51811;DHT22;52468;40.116;18.296;2023-03-18T11:49:25;20.50;36.00
51811;DHT22;52468;40.116;18.296;2023-03-18T11:52:09;20.50;36.00
51811;DHT22;52468;40.116;18.296;2023-03-18T11:57:44;20.50;35.30
51811;DHT22;52468;40.116;18.296;2023-03-18T12:00:32;20.50;35.10
51811;DHT22;52468;40.116;18.296;2023-03-18T12:05:45;20.90;33.30
51811;DHT22;52468;40.116;18.296;2023-03-18T12:08:42;21.20;33.10
51811;DHT22;52468;40.116;18.296;2023-03-18T12:11:20;21.40;32.90
51811;DHT22;52468;40.116;18.296;2023-03-18T12:14:03;21.20;32.90
51811;DHT22;52468;40.116;18.296;2023-03-18T12:25:06;21.10;33.70
51811;DHT22;52468;40.116;18.296;2023-03-18T12:33:44;21.10;34.30
51811;DHT22;52468;40.116;18.296;2023-03-18T12:36:59;20.90;34.90
51811;DHT22;52468;40.116;18.296;2023-03-18T12:45:05;20.90;35.10
51811;DHT22;52468;40.116;18.296;2023-03-18T12:47:51;20.70;35.60
51811;DHT22;52468;40.116;18.296;2023-03-18T12:50:35;21.00;35.30
51811;DHT22;52468;40.116;18.296;2023-03-18T12:53:33;20.80;34.80
51811;DHT22;52468;40.116;18.296;2023-03-18T12:56:23;20.90;34.90
51811;DHT22;52468;40.116;18.296;2023-03-18T12:59:20;21.40;34.50
51811;DHT22;52468;40.116;18.296;2023-03-18T13:01:59;21.30;34.50
51811;DHT22;52468;40.116;18.296;2023-03-18T13:04:31;21.00;34.90
51811;DHT22;52468;40.116;18.296;2023-03-18T13:07:15;21.00;34.70
51811;DHT22;52468;40.116;18.296;2023-03-18T13:09:57;21.10;35.00
51811;DHT22;52468;40.116;18.296;2023-03-18T13:12:34;21.10;34.50
51811;DHT22;52468;40.116;18.296;2023-03-18T13:15:43;20.90;34.70
51811;DHT22;52468;40.116;18.296;2023-03-18T13:20:56;20.70;35.60
51811;DHT22;52468;40.116;18.296;2023-03-18T13:23:51;20.80;35.30
51811;DHT22;52468;40.116;18.296;2023-03-18T13:29:11;20.90;35.20
51811;DHT22;52468;40.116;18.296;2023-03-18T13:43:26;20.70;35.70
51811;DHT22;52468;40.116;18.296;2023-03-18T13:45:56;21.00;35.40
51811;DHT22;52468;40.116;18.296;2023-03-18T13:48:31;21.00;35.40
51811;DHT22;52468;40.116;18.296;2023-03-18T13:51:59;20.80;36.00
51811;DHT22;52468;40.116;18.296;2023-03-18T13:54:14;20.80;36.00
51811;DHT22;52468;40.116;18.296;2023-03-18T13:56:51;20.80;36.00
51811;DHT22;52468;40.116;18.296;2023-03-18T14:04:55;21.20;35.40
51811;DHT22;52468;40.116;18.296;2023-03-18T14:07:27;20.70;36.10
51811;DHT22;52468;40.116;18.296;2023-03-18T14:12:45;20.50;36.40
51811;DHT22;52468;40.116;18.296;2023-03-18T14:15:39;20.50;36.50
51811;DHT22;52468;40.116;18.296;2023-03-18T14:18:21;20.40;36.90
51811;DHT22;52468;40.116;18.296;2023-03-18T14:20:58;20.80;36.40
51811;DHT22;52468;40.116;18.296;2023-03-18T14:23:36;21.40;35.60
51811;DHT22;52468;40.116;18.296;2023-03-18T14:26:20;22.20;34.60
51811;DHT22;52468;40.116;18.296;2023-03-18T14:29:07;23.00;33.70
51811;DHT22;52468;40.116;18.296;2023-03-18T14:39:40;27.20;29.80
51811;DHT22;52468;40.116;18.296;2023-03-18T14:45:13;28.30;28.00
51811;DHT22;52468;40.116;18.296;2023-03-18T14:47:49;27.90;28.90
51811;DHT22;52468;40.116;18.296;2023-03-18T14:52:53;28.60;28.10
51811;DHT22;52468;40.116;18.296;2023-03-18T14:55:29;29.00;27.70
51811;DHT22;52468;40.116;18.296;2023-03-18T14:57:57;29.00;27.50
51811;DHT22;52468;40.116;18.296;2023-03-18T15:00:27;29.30;27.00
51811;DHT22;52468;40.116;18.296;2023-03-18T15:03:01;29.80;26.70
51811;DHT22;52468;40.116;18.296;2023-03-18T15:05:48;30.30;26.00
51811;DHT22;52468;40.116;18.296;2023-03-18T15:08:20;30.40;25.60
51811;DHT22;52468;40.116;18.296;2023-03-18T15:10:50;30.60;25.40
51811;DHT22;52468;40.116;18.296;2023-03-18T15:13:20;31.00;25.00
51811;DHT22;52468;40.116;18.296;2023-03-18T15:15:49;31.20;24.70
51811;DHT22;52468;40.116;18.296;2023-03-18T15:18:28;31.30;24.50
51811;DHT22;52468;40.116;18.296;2023-03-18T15:21:23;30.50;25.40
51811;DHT22;52468;40.116;18.296;2023-03-18T15:23:55;30.60;25.30
51811;DHT22;52468;40.116;18.296;2023-03-18T15:26:27;30.80;25.10
51811;DHT22;52468;40.116;18.296;2023-03-18T15:28:58;30.30;25.30
51811;DHT22;52468;40.116;18.296;2023-03-18T15:31:28;30.00;25.60
51811;DHT22;52468;40.116;18.296;2023-03-18T15:34:14;29.70;25.80
51811;DHT22;52468;40.116;18.296;2023-03-18T15:36:58;28.40;27.20
51811;DHT22;52468;40.116;18.296;2023-03-18T15:39:33;26.00;30.10
51811;DHT22;52468;40.116;18.296;2023-03-18T15:42:15;25.20;31.60
51811;DHT22;52468;40.116;18.296;2023-03-18T15:44:44;24.00;33.40
51811;DHT22;52468;40.116;18.296;2023-03-18T15:47:18;22.80;35.30
51811;DHT22;52468;40.116;18.296;2023-03-18T15:50:00;21.10;38.20
51811;DHT22;52468;40.116;18.296;2023-03-18T15:52:33;20.30;39.80
51811;DHT22;52468;40.116;18.296;2023-03-18T15:55:33;20.00;40.70
51811;DHT22;52468;40.116;18.296;2023-03-18T15:58:04;19.40;41.80
51811;DHT22;52468;40.116;18.296;2023-03-18T16:00:35;19.20;42.60
51811;DHT22;52468;40.116;18.296;2023-03-18T16:10:37;18.70;43.50
51811;DHT22;52468;40.116;18.296;2023-03-18T16:13:05;18.20;44.80
51811;DHT22;52468;40.116;18.296;2023-03-18T16:18:02;17.90;46.00
51811;DHT22;52468;40.116;18.296;2023-03-18T16:20:30;17.70;46.40
51811;DHT22;52468;40.116;18.296;2023-03-18T16:22:59;17.80;46.50
51811;DHT22;52468;40.116;18.296;2023-03-18T16:25:27;17.60;46.70
51811;DHT22;52468;40.116;18.296;2023-03-18T16:27:58;17.40;47.30
51811;DHT22;52468;40.116;18.296;2023-03-18T16:30:28;17.40;47.50
51811;DHT22;52468;40.116;18.296;2023-03-18T16:32:57;17.20;48.10
51811;DHT22;52468;40.116;18.296;2023-03-18T16:35:32;17.10;48.30
51811;DHT22;52468;40.116;18.296;2023-03-18T16:38:01;17.00;48.50
51811;DHT22;52468;40.116;18.296;2023-03-18T16:40:30;17.00;48.70
51811;DHT22;52468;40.116;18.296;2023-03-18T16:42:58;16.80;49.20
51811;DHT22;52468;40.116;18.296;2023-03-18T16:45:27;16.60;49.80
51811;DHT22;52468;40.116;18.296;2023-03-18T16:47:59;16.50;50.30
51811;DHT22;52468;40.116;18.296;2023-03-18T16:50:33;16.30;50.90
51811;DHT22;52468;40.116;18.296;2023-03-18T16:53:01;16.10;51.50
51811;DHT22;52468;40.116;18.296;2023-03-18T16:55:30;16.00;52.10
51811;DHT22;52468;40.116;18.296;2023-03-18T16:57:59;15.90;52.60
51811;DHT22;52468;40.116;18.296;2023-03-18T17:00:29;15.70;53.20
51811;DHT22;52468;40.116;18.296;2023-03-18T17:05:27;15.30;53.70
51811;DHT22;52468;40.116;18.296;2023-03-18T17:07:55;15.10;53.40
51811;DHT22;52468;40.116;18.296;2023-03-18T17:10:25;15.00;53.30
51811;DHT22;52468;40.116;18.296;2023-03-18T17:12:58;14.90;53.30
51811;DHT22;52468;40.116;18.296;2023-03-18T17:15:30;14.80;53.40
51811;DHT22;52468;40.116;18.296;2023-03-18T17:18:04;14.60;53.60
51811;DHT22;52468;40.116;18.296;2023-03-18T17:20:33;14.50;53.80
51811;DHT22;52468;40.116;18.296;2023-03-18T17:23:01;14.40;53.90
51811;DHT22;52468;40.116;18.296;2023-03-18T17:25:30;14.30;54.00
51811;DHT22;52468;40.116;18.296;2023-03-18T17:28:05;14.20;54.10
51811;DHT22;52468;40.116;18.296;2023-03-18T17:30:40;14.10;54.20
51811;DHT22;52468;40.116;18.296;2023-03-18T17:33:19;14.10;54.60
51811;DHT22;52468;40.116;18.296;2023-03-18T17:35:47;14.00;55.10
51811;DHT22;52468;40.116;18.296;2023-03-18T17:38:15;13.90;55.30
51811;DHT22;52468;40.116;18.296;2023-03-18T17:40:43;13.80;55.70
51811;DHT22;52468;40.116;18.296;2023-03-18T17:45:57;13.50;56.00
51811;DHT22;52468;40.116;18.296;2023-03-18T17:48:29;13.40;56.30
51811;DHT22;52468;40.116;18.296;2023-03-18T17:51:06;13.30;56.50
51811;DHT22;52468;40.116;18.296;2023-03-18T17:56:13;13.10;57.10
51811;DHT22;52468;40.116;18.296;2023-03-18T17:58:44;13.10;57.00
51811;DHT22;52468;40.116;18.296;2023-03-18T18:01:20;13.10;57.00
51811;DHT22;52468;40.116;18.296;2023-03-18T18:03:51;13.10;57.00